sensor_id;sensor_type;location;lat;lon;timestamp;temperature;humidity
71367;DHT22;60030;52.274;8.040;2023-04-19T00:02:22;11.40;99.90
71367;DHT22;60030;52.274;8.040;2023-04-19T00:04:50;11.40;99.90
71367;DHT22;60030;52.274;8.040;2023-04-19T00:07:18;11.40;99.90
71367;DHT22;60030;52.274;8.040;2023-04-19T00:09:45;11.40;99.90
71367;DHT22;60030;52.274;8.040;2023-04-19T00:12:12;11.50;99.90
71367;DHT22;60030;52.274;8.040;2023-04-19T00:14:40;11.50;99.90
71367;DHT22;60030;52.274;8.040;2023-04-19T00:17:07;11.50;99.90
71367;DHT22;60030;52.274;8.040;2023-04-19T00:19:36;11.50;99.90
71367;DHT22;60030;52.274;8.040;2023-04-19T00:22:03;11.20;99.90
71367;DHT22;60030;52.274;8.040;2023-04-19T00:24:30;11.20;99.90
71367;DHT22;60030;52.274;8.040;2023-04-19T00:26:57;11.30;99.90
71367;DHT22;60030;52.274;8.040;2023-04-19T00:29:25;11.10;99.90
71367;DHT22;60030;52.274;8.040;2023-04-19T00:31:53;11.10;99.90
71367;DHT22;60030;52.274;8.040;2023-04-19T00:34:20;11.20;99.90
71367;DHT22;60030;52.274;8.040;2023-04-19T00:36:47;11.10;99.90
71367;DHT22;60030;52.274;8.040;2023-04-19T00:39:14;11.10;99.90
71367;DHT22;60030;52.274;8.040;2023-04-19T00:41:41;11.10;99.90
71367;DHT22;60030;52.274;8.040;2023-04-19T00:44:08;11.10;99.90
71367;DHT22;60030;52.274;8.040;2023-04-19T00:46:36;11.10;99.90
71367;DHT22;60030;52.274;8.040;2023-04-19T00:49:05;11.20;99.90
71367;DHT22;60030;52.274;8.040;2023-04-19T00:51:32;11.30;99.90
71367;DHT22;60030;52.274;8.040;2023-04-19T00:54:02;11.10;99.90
71367;DHT22;60030;52.274;8.040;2023-04-19T00:56:29;11.20;99.90
71367;DHT22;60030;52.274;8.040;2023-04-19T00:58:56;11.10;99.90
71367;DHT22;60030;52.274;8.040;2023-04-19T01:01:24;11.10;99.90
71367;DHT22;60030;52.274;8.040;2023-04-19T01:03:51;11.10;99.90
71367;DHT22;60030;52.274;8.040;2023-04-19T01:06:21;11.10;99.90
71367;DHT22;60030;52.274;8.040;2023-04-19T01:08:48;11.00;99.90
71367;DHT22;60030;52.274;8.040;2023-04-19T01:11:15;11.00;99.90
71367;DHT22;60030;52.274;8.040;2023-04-19T01:13:44;11.00;99.90
71367;DHT22;60030;52.274;8.040;2023-04-19T01:16:11;10.90;99.90
71367;DHT22;60030;52.274;8.040;2023-04-19T01:18:38;10.80;99.90
71367;DHT22;60030;52.274;8.040;2023-04-19T01:21:07;10.70;99.90
71367;DHT22;60030;52.274;8.040;2023-04-19T01:23:35;10.80;99.90
71367;DHT22;60030;52.274;8.040;2023-04-19T01:26:04;10.70;99.90
71367;DHT22;60030;52.274;8.040;2023-04-19T01:28:32;10.70;99.90
71367;DHT22;60030;52.274;8.040;2023-04-19T01:30:59;10.70;99.90
71367;DHT22;60030;52.274;8.040;2023-04-19T01:33:26;10.60;99.90
71367;DHT22;60030;52.274;8.040;2023-04-19T01:35:53;10.50;99.90
71367;DHT22;60030;52.274;8.040;2023-04-19T01:38:20;10.30;99.90
71367;DHT22;60030;52.274;8.040;2023-04-19T01:40:48;10.40;99.90
71367;DHT22;60030;52.274;8.040;2023-04-19T01:43:16;10.40;99.90
71367;DHT22;60030;52.274;8.040;2023-04-19T01:45:43;10.40;99.90
71367;DHT22;60030;52.274;8.040;2023-04-19T01:48:11;10.40;99.90
71367;DHT22;60030;52.274;8.040;2023-04-19T01:50:38;10.30;99.90
71367;DHT22;60030;52.274;8.040;2023-04-19T01:53:05;10.30;99.90
71367;DHT22;60030;52.274;8.040;2023-04-19T01:55:32;10.30;99.90
71367;DHT22;60030;52.274;8.040;2023-04-19T01:58:01;10.40;99.90
71367;DHT22;60030;52.274;8.040;2023-04-19T02:00:28;10.40;99.90
71367;DHT22;60030;52.274;8.040;2023-04-19T02:02:55;10.40;99.90
71367;DHT22;60030;52.274;8.040;2023-04-19T02:05:22;10.30;99.90
71367;DHT22;60030;52.274;8.040;2023-04-19T02:07:49;10.40;99.90
71367;DHT22;60030;52.274;8.040;2023-04-19T02:10:16;10.40;99.90
71367;DHT22;60030;52.274;8.040;2023-04-19T02:12:44;10.30;99.90
71367;DHT22;60030;52.274;8.040;2023-04-19T02:15:12;10.30;99.90
71367;DHT22;60030;52.274;8.040;2023-04-19T02:17:39;10.20;99.90
71367;DHT22;60030;52.274;8.040;2023-04-19T02:20:07;10.20;99.90
71367;DHT22;60030;52.274;8.040;2023-04-19T02:22:35;10.20;99.90
71367;DHT22;60030;52.274;8.040;2023-04-19T02:25:03;10.20;99.90
71367;DHT22;60030;52.274;8.040;2023-04-19T02:27:31;10.10;99.90
71367;DHT22;60030;52.274;8.040;2023-04-19T02:29:59;10.10;99.90
71367;DHT22;60030;52.274;8.040;2023-04-19T02:32:28;10.20;99.90
71367;DHT22;60030;52.274;8.040;2023-04-19T02:34:55;10.20;99.90
71367;DHT22;60030;52.274;8.040;2023-04-19T02:37:22;10.00;99.90
71367;DHT22;60030;52.274;8.040;2023-04-19T02:39:49;10.00;99.90
71367;DHT22;60030;52.274;8.040;2023-04-19T02:42:16;10.00;99.90
71367;DHT22;60030;52.274;8.040;2023-04-19T02:44:43;9.90;99.90
71367;DHT22;60030;52.274;8.040;2023-04-19T02:47:10;9.90;99.90
71367;DHT22;60030;52.274;8.040;2023-04-19T02:49:38;9.90;99.90
71367;DHT22;60030;52.274;8.040;2023-04-19T02:52:07;9.70;99.90
71367;DHT22;60030;52.274;8.040;2023-04-19T02:54:37;9.70;99.90
71367;DHT22;60030;52.274;8.040;2023-04-19T02:57:04;9.60;99.90
71367;DHT22;60030;52.274;8.040;2023-04-19T02:59:31;9.60;99.90
71367;DHT22;60030;52.274;8.040;2023-04-19T03:02:00;9.50;99.90
71367;DHT22;60030;52.274;8.040;2023-04-19T03:04:27;9.40;99.90
71367;DHT22;60030;52.274;8.040;2023-04-19T03:06:57;9.40;99.90
71367;DHT22;60030;52.274;8.040;2023-04-19T03:09:25;9.40;99.90
71367;DHT22;60030;52.274;8.040;2023-04-19T03:11:52;9.40;99.90
71367;DHT22;60030;52.274;8.040;2023-04-19T03:14:19;9.30;99.90
71367;DHT22;60030;52.274;8.040;2023-04-19T03:16:46;9.20;99.90
71367;DHT22;60030;52.274;8.040;2023-04-19T03:19:14;9.20;99.90
71367;DHT22;60030;52.274;8.040;2023-04-19T03:21:47;9.20;99.90
71367;DHT22;60030;52.274;8.040;2023-04-19T03:24:17;9.20;99.90
71367;DHT22;60030;52.274;8.040;2023-04-19T03:26:49;9.20;99.90
71367;DHT22;60030;52.274;8.040;2023-04-19T03:29:21;9.20;99.90
71367;DHT22;60030;52.274;8.040;2023-04-19T03:31:57;9.20;99.90
71367;DHT22;60030;52.274;8.040;2023-04-19T03:34:24;9.00;99.90
71367;DHT22;60030;52.274;8.040;2023-04-19T03:36:51;9.10;99.90
71367;DHT22;60030;52.274;8.040;2023-04-19T03:39:19;9.10;99.90
71367;DHT22;60030;52.274;8.040;2023-04-19T03:41:50;8.90;99.90
71367;DHT22;60030;52.274;8.040;2023-04-19T03:44:24;8.90;99.90
71367;DHT22;60030;52.274;8.040;2023-04-19T03:46:52;8.90;99.90
71367;DHT22;60030;52.274;8.040;2023-04-19T03:49:23;8.80;99.90
71367;DHT22;60030;52.274;8.040;2023-04-19T03:52:00;8.70;99.90
71367;DHT22;60030;52.274;8.040;2023-04-19T03:54:28;8.70;99.90
71367;DHT22;60030;52.274;8.040;2023-04-19T03:56:56;8.70;99.90
71367;DHT22;60030;52.274;8.040;2023-04-19T03:59:24;8.50;99.90
71367;DHT22;60030;52.274;8.040;2023-04-19T04:01:51;8.60;99.90
71367;DHT22;60030;52.274;8.040;2023-04-19T04:04:18;8.50;99.90
71367;DHT22;60030;52.274;8.040;2023-04-19T04:06:45;8.40;99.90
71367;DHT22;60030;52.274;8.040;2023-04-19T04:09:15;8.30;99.90
71367;DHT22;60030;52.274;8.040;2023-04-19T04:11:44;8.30;99.90
71367;DHT22;60030;52.274;8.040;2023-04-19T04:14:11;8.20;99.90
71367;DHT22;60030;52.274;8.040;2023-04-19T04:16:39;8.30;99.90
71367;DHT22;60030;52.274;8.040;2023-04-19T04:19:06;8.10;99.90
71367;DHT22;60030;52.274;8.040;2023-04-19T04:21:36;8.10;99.90
71367;DHT22;60030;52.274;8.040;2023-04-19T04:24:06;8.00;99.90
71367;DHT22;60030;52.274;8.040;2023-04-19T04:27:08;8.00;99.90
71367;DHT22;60030;52.274;8.040;2023-04-19T04:29:39;8.10;99.90
71367;DHT22;60030;52.274;8.040;2023-04-19T04:32:08;8.00;99.90
71367;DHT22;60030;52.274;8.040;2023-04-19T04:34:39;8.00;99.90
71367;DHT22;60030;52.274;8.040;2023-04-19T04:37:11;7.80;99.90
71367;DHT22;60030;52.274;8.040;2023-04-19T04:39:39;7.70;99.90
71367;DHT22;60030;52.274;8.040;2023-04-19T04:42:09;7.80;99.90
71367;DHT22;60030;52.274;8.040;2023-04-19T04:44:37;7.80;99.90
71367;DHT22;60030;52.274;8.040;2023-04-19T04:47:05;7.70;99.90
71367;DHT22;60030;52.274;8.040;2023-04-19T04:49:38;7.70;99.90
71367;DHT22;60030;52.274;8.040;2023-04-19T04:52:06;7.60;99.90
71367;DHT22;60030;52.274;8.040;2023-04-19T04:54:41;7.50;99.90
71367;DHT22;60030;52.274;8.040;2023-04-19T04:57:19;7.50;99.90
71367;DHT22;60030;52.274;8.040;2023-04-19T04:59:47;7.50;99.90
71367;DHT22;60030;52.274;8.040;2023-04-19T05:02:16;7.50;99.90
71367;DHT22;60030;52.274;8.040;2023-04-19T05:04:43;7.60;99.90
71367;DHT22;60030;52.274;8.040;2023-04-19T05:07:10;7.50;99.90
71367;DHT22;60030;52.274;8.040;2023-04-19T05:09:37;7.40;99.90
71367;DHT22;60030;52.274;8.040;2023-04-19T05:12:05;7.50;99.90
71367;DHT22;60030;52.274;8.040;2023-04-19T05:14:34;7.40;99.90
71367;DHT22;60030;52.274;8.040;2023-04-19T05:17:01;7.50;99.90
71367;DHT22;60030;52.274;8.040;2023-04-19T05:19:28;7.60;99.90
71367;DHT22;60030;52.274;8.040;2023-04-19T05:22:01;7.50;99.90
71367;DHT22;60030;52.274;8.040;2023-04-19T05:24:28;7.40;99.90
71367;DHT22;60030;52.274;8.040;2023-04-19T05:26:56;7.60;99.90
71367;DHT22;60030;52.274;8.040;2023-04-19T05:29:23;7.60;99.90
71367;DHT22;60030;52.274;8.040;2023-04-19T05:31:56;7.50;99.90
71367;DHT22;60030;52.274;8.040;2023-04-19T05:34:28;7.60;99.90
71367;DHT22;60030;52.274;8.040;2023-04-19T05:36:56;7.70;99.90
71367;DHT22;60030;52.274;8.040;2023-04-19T05:39:24;7.70;99.90
71367;DHT22;60030;52.274;8.040;2023-04-19T05:41:51;7.70;99.90
71367;DHT22;60030;52.274;8.040;2023-04-19T05:44:18;7.60;99.90
71367;DHT22;60030;52.274;8.040;2023-04-19T05:46:46;7.70;99.90
71367;DHT22;60030;52.274;8.040;2023-04-19T05:49:19;7.70;99.90
71367;DHT22;60030;52.274;8.040;2023-04-19T05:52:04;7.60;99.90
71367;DHT22;60030;52.274;8.040;2023-04-19T05:54:53;7.60;99.90
71367;DHT22;60030;52.274;8.040;2023-04-19T05:57:21;7.70;99.90
71367;DHT22;60030;52.274;8.040;2023-04-19T05:59:48;7.70;99.90
71367;DHT22;60030;52.274;8.040;2023-04-19T06:02:19;7.70;99.90
71367;DHT22;60030;52.274;8.040;2023-04-19T06:04:47;7.80;99.90
71367;DHT22;60030;52.274;8.040;2023-04-19T06:07:14;7.60;99.90
71367;DHT22;60030;52.274;8.040;2023-04-19T06:09:41;7.70;99.90
71367;DHT22;60030;52.274;8.040;2023-04-19T06:12:09;7.70;99.90
71367;DHT22;60030;52.274;8.040;2023-04-19T06:14:37;7.80;99.90
71367;DHT22;60030;52.274;8.040;2023-04-19T06:17:04;7.90;99.90
71367;DHT22;60030;52.274;8.040;2023-04-19T06:19:31;7.90;99.90
71367;DHT22;60030;52.274;8.040;2023-04-19T06:22:00;7.90;99.90
71367;DHT22;60030;52.274;8.040;2023-04-19T06:24:27;8.00;99.90
71367;DHT22;60030;52.274;8.040;2023-04-19T06:26:54;7.90;99.90
71367;DHT22;60030;52.274;8.040;2023-04-19T06:29:21;8.00;99.90
71367;DHT22;60030;52.274;8.040;2023-04-19T06:31:49;8.00;99.90
71367;DHT22;60030;52.274;8.040;2023-04-19T06:34:16;7.90;99.90
71367;DHT22;60030;52.274;8.040;2023-04-19T06:36:48;8.00;99.90
71367;DHT22;60030;52.274;8.040;2023-04-19T06:39:17;8.10;99.90
71367;DHT22;60030;52.274;8.040;2023-04-19T06:41:44;8.30;99.90
71367;DHT22;60030;52.274;8.040;2023-04-19T06:44:15;8.40;99.90
71367;DHT22;60030;52.274;8.040;2023-04-19T06:46:42;8.30;99.90
71367;DHT22;60030;52.274;8.040;2023-04-19T06:49:09;8.30;99.90
71367;DHT22;60030;52.274;8.040;2023-04-19T06:51:37;8.30;99.90
71367;DHT22;60030;52.274;8.040;2023-04-19T06:54:04;8.30;99.90
71367;DHT22;60030;52.274;8.040;2023-04-19T06:56:41;8.30;99.90
71367;DHT22;60030;52.274;8.040;2023-04-19T06:59:11;8.30;99.90
71367;DHT22;60030;52.274;8.040;2023-04-19T07:01:38;8.30;99.90
71367;DHT22;60030;52.274;8.040;2023-04-19T07:04:06;8.40;99.90
71367;DHT22;60030;52.274;8.040;2023-04-19T07:06:33;8.60;99.90
71367;DHT22;60030;52.274;8.040;2023-04-19T07:09:00;8.60;99.90
71367;DHT22;60030;52.274;8.040;2023-04-19T07:11:28;8.70;99.90
71367;DHT22;60030;52.274;8.040;2023-04-19T07:13:57;8.60;99.90
71367;DHT22;60030;52.274;8.040;2023-04-19T07:16:25;8.40;99.90
71367;DHT22;60030;52.274;8.040;2023-04-19T07:18:52;8.60;99.90
71367;DHT22;60030;52.274;8.040;2023-04-19T07:21:20;8.60;99.90
71367;DHT22;60030;52.274;8.040;2023-04-19T07:23:47;8.80;99.90
71367;DHT22;60030;52.274;8.040;2023-04-19T07:26:14;8.80;99.90
71367;DHT22;60030;52.274;8.040;2023-04-19T07:28:41;8.90;99.90
71367;DHT22;60030;52.274;8.040;2023-04-19T07:31:15;9.10;99.90
71367;DHT22;60030;52.274;8.040;2023-04-19T07:33:42;9.20;99.90
71367;DHT22;60030;52.274;8.040;2023-04-19T07:36:09;9.30;99.90
71367;DHT22;60030;52.274;8.040;2023-04-19T07:38:36;9.30;99.90
71367;DHT22;60030;52.274;8.040;2023-04-19T07:41:04;9.20;99.90
71367;DHT22;60030;52.274;8.040;2023-04-19T07:43:31;9.30;99.90
71367;DHT22;60030;52.274;8.040;2023-04-19T07:45:59;9.30;99.90
71367;DHT22;60030;52.274;8.040;2023-04-19T07:48:27;9.40;99.90
71367;DHT22;60030;52.274;8.040;2023-04-19T07:50:54;9.40;99.90
71367;DHT22;60030;52.274;8.040;2023-04-19T07:53:21;9.40;99.90
71367;DHT22;60030;52.274;8.040;2023-04-19T07:55:48;9.50;99.90
71367;DHT22;60030;52.274;8.040;2023-04-19T07:58:15;9.50;99.90
71367;DHT22;60030;52.274;8.040;2023-04-19T08:00:42;9.60;99.90
71367;DHT22;60030;52.274;8.040;2023-04-19T08:03:09;9.70;99.90
71367;DHT22;60030;52.274;8.040;2023-04-19T08:05:38;9.90;99.90
71367;DHT22;60030;52.274;8.040;2023-04-19T08:08:05;10.00;99.90
71367;DHT22;60030;52.274;8.040;2023-04-19T08:10:32;9.90;99.90
71367;DHT22;60030;52.274;8.040;2023-04-19T08:13:00;10.00;99.90
71367;DHT22;60030;52.274;8.040;2023-04-19T08:15:27;9.90;99.90
71367;DHT22;60030;52.274;8.040;2023-04-19T08:17:54;10.10;99.90
71367;DHT22;60030;52.274;8.040;2023-04-19T08:20:21;10.20;99.90
71367;DHT22;60030;52.274;8.040;2023-04-19T08:22:50;10.20;99.30
71367;DHT22;60030;52.274;8.040;2023-04-19T08:25:17;10.30;99.50
71367;DHT22;60030;52.274;8.040;2023-04-19T08:27:44;10.50;99.20
71367;DHT22;60030;52.274;8.040;2023-04-19T08:30:12;10.60;98.80
71367;DHT22;60030;52.274;8.040;2023-04-19T08:32:39;10.70;98.20
71367;DHT22;60030;52.274;8.040;2023-04-19T08:35:07;10.70;97.80
71367;DHT22;60030;52.274;8.040;2023-04-19T08:37:34;10.60;96.60
71367;DHT22;60030;52.274;8.040;2023-04-19T08:40:03;10.60;96.70
71367;DHT22;60030;52.274;8.040;2023-04-19T08:42:31;10.80;96.20
71367;DHT22;60030;52.274;8.040;2023-04-19T08:45:00;10.70;94.70
71367;DHT22;60030;52.274;8.040;2023-04-19T08:47:32;10.70;94.50
71367;DHT22;60030;52.274;8.040;2023-04-19T08:49:59;10.80;94.50
71367;DHT22;60030;52.274;8.040;2023-04-19T08:52:27;10.80;94.70
71367;DHT22;60030;52.274;8.040;2023-04-19T08:54:55;10.90;94.80
71367;DHT22;60030;52.274;8.040;2023-04-19T08:57:24;11.00;94.60
71367;DHT22;60030;52.274;8.040;2023-04-19T08:59:51;11.20;94.20
71367;DHT22;60030;52.274;8.040;2023-04-19T09:02:20;11.30;91.80
71367;DHT22;60030;52.274;8.040;2023-04-19T09:04:47;11.40;91.50
71367;DHT22;60030;52.274;8.040;2023-04-19T09:07:22;11.50;90.10
71367;DHT22;60030;52.274;8.040;2023-04-19T09:10:04;11.50;90.50
71367;DHT22;60030;52.274;8.040;2023-04-19T09:12:33;11.60;90.90
71367;DHT22;60030;52.274;8.040;2023-04-19T09:15:01;11.80;90.10
71367;DHT22;60030;52.274;8.040;2023-04-19T09:17:30;11.80;89.00
71367;DHT22;60030;52.274;8.040;2023-04-19T09:19:58;11.80;88.30
71367;DHT22;60030;52.274;8.040;2023-04-19T09:22:25;11.90;88.00
71367;DHT22;60030;52.274;8.040;2023-04-19T09:24:52;12.00;88.60
71367;DHT22;60030;52.274;8.040;2023-04-19T09:27:25;12.00;88.20
71367;DHT22;60030;52.274;8.040;2023-04-19T09:29:55;12.10;88.20
71367;DHT22;60030;52.274;8.040;2023-04-19T09:32:23;12.40;88.90
71367;DHT22;60030;52.274;8.040;2023-04-19T09:34:52;12.50;87.80
71367;DHT22;60030;52.274;8.040;2023-04-19T09:37:19;12.60;86.60
71367;DHT22;60030;52.274;8.040;2023-04-19T09:39:47;12.60;85.10
71367;DHT22;60030;52.274;8.040;2023-04-19T09:42:14;12.60;85.20
71367;DHT22;60030;52.274;8.040;2023-04-19T09:44:56;12.50;85.00
71367;DHT22;60030;52.274;8.040;2023-04-19T09:47:24;12.60;82.20
71367;DHT22;60030;52.274;8.040;2023-04-19T09:50:05;12.60;81.20
71367;DHT22;60030;52.274;8.040;2023-04-19T09:52:33;12.70;77.70
71367;DHT22;60030;52.274;8.040;2023-04-19T09:55:01;12.70;76.40
71367;DHT22;60030;52.274;8.040;2023-04-19T09:57:29;12.90;75.60
71367;DHT22;60030;52.274;8.040;2023-04-19T09:59:59;12.70;72.00
71367;DHT22;60030;52.274;8.040;2023-04-19T10:02:39;12.80;72.30
71367;DHT22;60030;52.274;8.040;2023-04-19T10:05:07;13.00;73.60
71367;DHT22;60030;52.274;8.040;2023-04-19T10:07:36;13.10;72.40
71367;DHT22;60030;52.274;8.040;2023-04-19T10:10:05;13.30;73.10
71367;DHT22;60030;52.274;8.040;2023-04-19T10:12:34;13.40;74.60
71367;DHT22;60030;52.274;8.040;2023-04-19T10:15:05;13.60;72.60
71367;DHT22;60030;52.274;8.040;2023-04-19T10:17:33;13.70;71.80
71367;DHT22;60030;52.274;8.040;2023-04-19T10:20:04;13.80;72.50
71367;DHT22;60030;52.274;8.040;2023-04-19T10:22:34;13.80;70.20
71367;DHT22;60030;52.274;8.040;2023-04-19T10:25:10;13.80;71.20
71367;DHT22;60030;52.274;8.040;2023-04-19T10:27:37;14.00;71.10
71367;DHT22;60030;52.274;8.040;2023-04-19T10:30:16;14.10;68.50
71367;DHT22;60030;52.274;8.040;2023-04-19T10:32:45;14.10;69.30
71367;DHT22;60030;52.274;8.040;2023-04-19T10:35:17;14.40;67.10
71367;DHT22;60030;52.274;8.040;2023-04-19T10:38:06;14.50;65.20
71367;DHT22;60030;52.274;8.040;2023-04-19T10:40:58;14.60;63.00
71367;DHT22;60030;52.274;8.040;2023-04-19T10:43:31;14.70;62.60
71367;DHT22;60030;52.274;8.040;2023-04-19T10:46:02;14.80;63.80
71367;DHT22;60030;52.274;8.040;2023-04-19T10:48:37;15.00;63.90
71367;DHT22;60030;52.274;8.040;2023-04-19T10:51:10;14.90;61.60
71367;DHT22;60030;52.274;8.040;2023-04-19T10:53:50;14.70;62.00
71367;DHT22;60030;52.274;8.040;2023-04-19T10:56:19;14.70;62.30
71367;DHT22;60030;52.274;8.040;2023-04-19T10:59:14;14.90;63.40
71367;DHT22;60030;52.274;8.040;2023-04-19T11:01:52;15.20;62.40
71367;DHT22;60030;52.274;8.040;2023-04-19T11:07:18;15.30;61.50
71367;DHT22;60030;52.274;8.040;2023-04-19T11:09:46;15.40;60.20
71367;DHT22;60030;52.274;8.040;2023-04-19T11:12:15;15.40;59.10
71367;DHT22;60030;52.274;8.040;2023-04-19T11:14:44;15.50;59.30
71367;DHT22;60030;52.274;8.040;2023-04-19T11:17:17;15.50;59.50
71367;DHT22;60030;52.274;8.040;2023-04-19T11:19:52;15.70;57.90
71367;DHT22;60030;52.274;8.040;2023-04-19T11:22:24;15.80;57.20
71367;DHT22;60030;52.274;8.040;2023-04-19T11:24:52;15.70;57.30
71367;DHT22;60030;52.274;8.040;2023-04-19T11:27:19;15.80;57.00
71367;DHT22;60030;52.274;8.040;2023-04-19T11:29:47;15.80;57.10
71367;DHT22;60030;52.274;8.040;2023-04-19T11:32:15;15.90;58.00
71367;DHT22;60030;52.274;8.040;2023-04-19T11:34:42;15.90;57.20
71367;DHT22;60030;52.274;8.040;2023-04-19T11:37:09;15.90;56.70
71367;DHT22;60030;52.274;8.040;2023-04-19T11:39:44;16.20;55.90
71367;DHT22;60030;52.274;8.040;2023-04-19T11:42:18;16.20;55.50
71367;DHT22;60030;52.274;8.040;2023-04-19T11:44:49;15.90;55.20
71367;DHT22;60030;52.274;8.040;2023-04-19T11:47:18;16.40;55.80
71367;DHT22;60030;52.274;8.040;2023-04-19T11:49:45;16.40;54.90
71367;DHT22;60030;52.274;8.040;2023-04-19T11:52:20;16.80;55.30
71367;DHT22;60030;52.274;8.040;2023-04-19T11:54:48;16.80;54.70
71367;DHT22;60030;52.274;8.040;2023-04-19T11:57:26;16.90;54.10
71367;DHT22;60030;52.274;8.040;2023-04-19T12:00:04;17.10;52.10
71367;DHT22;60030;52.274;8.040;2023-04-19T12:02:43;17.70;52.50
71367;DHT22;60030;52.274;8.040;2023-04-19T12:05:11;17.80;51.50
71367;DHT22;60030;52.274;8.040;2023-04-19T12:07:57;17.90;51.00
71367;DHT22;60030;52.274;8.040;2023-04-19T12:10:25;17.70;50.50
71367;DHT22;60030;52.274;8.040;2023-04-19T12:12:52;18.20;50.60
71367;DHT22;60030;52.274;8.040;2023-04-19T12:15:19;17.90;50.20
71367;DHT22;60030;52.274;8.040;2023-04-19T12:17:57;17.90;49.50
71367;DHT22;60030;52.274;8.040;2023-04-19T12:20:32;18.40;50.00
71367;DHT22;60030;52.274;8.040;2023-04-19T12:23:00;18.50;49.20
71367;DHT22;60030;52.274;8.040;2023-04-19T12:25:28;19.00;49.40
71367;DHT22;60030;52.274;8.040;2023-04-19T12:27:55;19.00;48.50
71367;DHT22;60030;52.274;8.040;2023-04-19T12:30:23;19.10;48.80
71367;DHT22;60030;52.274;8.040;2023-04-19T12:32:50;18.90;47.30
71367;DHT22;60030;52.274;8.040;2023-04-19T12:35:21;19.00;47.60
71367;DHT22;60030;52.274;8.040;2023-04-19T12:37:48;19.20;48.20
71367;DHT22;60030;52.274;8.040;2023-04-19T12:40:15;19.30;47.20
71367;DHT22;60030;52.274;8.040;2023-04-19T12:42:42;19.60;46.10
71367;DHT22;60030;52.274;8.040;2023-04-19T12:45:11;19.50;45.60
71367;DHT22;60030;52.274;8.040;2023-04-19T12:47:38;19.80;45.60
71367;DHT22;60030;52.274;8.040;2023-04-19T12:50:06;19.80;44.80
71367;DHT22;60030;52.274;8.040;2023-04-19T12:52:35;19.40;44.90
71367;DHT22;60030;52.274;8.040;2023-04-19T12:55:03;19.40;45.10
71367;DHT22;60030;52.274;8.040;2023-04-19T12:57:31;19.60;45.30
71367;DHT22;60030;52.274;8.040;2023-04-19T12:59:58;20.10;44.70
71367;DHT22;60030;52.274;8.040;2023-04-19T13:02:25;20.20;43.40
71367;DHT22;60030;52.274;8.040;2023-04-19T13:04:52;19.90;44.10
71367;DHT22;60030;52.274;8.040;2023-04-19T13:07:19;20.00;42.90
71367;DHT22;60030;52.274;8.040;2023-04-19T13:09:48;20.40;42.40
71367;DHT22;60030;52.274;8.040;2023-04-19T13:12:15;21.10;42.50
71367;DHT22;60030;52.274;8.040;2023-04-19T13:14:42;20.70;41.60
71367;DHT22;60030;52.274;8.040;2023-04-19T13:17:11;21.30;41.90
71367;DHT22;60030;52.274;8.040;2023-04-19T13:19:38;21.60;41.10
71367;DHT22;60030;52.274;8.040;2023-04-19T13:22:05;21.30;40.30
71367;DHT22;60030;52.274;8.040;2023-04-19T13:24:33;21.50;40.50
71367;DHT22;60030;52.274;8.040;2023-04-19T13:27:01;21.70;40.50
71367;DHT22;60030;52.274;8.040;2023-04-19T13:29:28;21.60;39.50
71367;DHT22;60030;52.274;8.040;2023-04-19T13:31:55;21.60;39.30
71367;DHT22;60030;52.274;8.040;2023-04-19T13:34:22;21.60;38.90
71367;DHT22;60030;52.274;8.040;2023-04-19T13:36:50;22.20;38.90
71367;DHT22;60030;52.274;8.040;2023-04-19T13:39:17;22.50;38.50
71367;DHT22;60030;52.274;8.040;2023-04-19T13:41:44;23.40;37.60
71367;DHT22;60030;52.274;8.040;2023-04-19T13:44:12;23.20;36.90
71367;DHT22;60030;52.274;8.040;2023-04-19T13:46:39;24.00;36.60
71367;DHT22;60030;52.274;8.040;2023-04-19T13:49:06;24.80;36.10
71367;DHT22;60030;52.274;8.040;2023-04-19T13:51:33;24.70;35.20
71367;DHT22;60030;52.274;8.040;2023-04-19T13:54:00;26.20;34.70
71367;DHT22;60030;52.274;8.040;2023-04-19T13:56:28;26.00;33.10
71367;DHT22;60030;52.274;8.040;2023-04-19T13:58:55;26.00;33.10
71367;DHT22;60030;52.274;8.040;2023-04-19T14:01:24;26.10;32.10
71367;DHT22;60030;52.274;8.040;2023-04-19T14:03:51;26.40;31.80
71367;DHT22;60030;52.274;8.040;2023-04-19T14:06:18;26.90;31.00
71367;DHT22;60030;52.274;8.040;2023-04-19T14:08:45;25.40;32.40
71367;DHT22;60030;52.274;8.040;2023-04-19T14:11:12;24.20;33.50
71367;DHT22;60030;52.274;8.040;2023-04-19T14:13:40;25.10;32.10
71367;DHT22;60030;52.274;8.040;2023-04-19T14:16:07;26.60;31.20
71367;DHT22;60030;52.274;8.040;2023-04-19T14:18:36;28.00;30.90
71367;DHT22;60030;52.274;8.040;2023-04-19T14:21:03;27.70;30.00
71367;DHT22;60030;52.274;8.040;2023-04-19T14:23:32;28.20;30.20
71367;DHT22;60030;52.274;8.040;2023-04-19T14:25:59;28.90;29.40
71367;DHT22;60030;52.274;8.040;2023-04-19T14:28:26;28.40;29.90
71367;DHT22;60030;52.274;8.040;2023-04-19T14:30:53;28.30;29.20
71367;DHT22;60030;52.274;8.040;2023-04-19T14:33:21;28.20;28.70
71367;DHT22;60030;52.274;8.040;2023-04-19T14:35:49;27.20;28.90
71367;DHT22;60030;52.274;8.040;2023-04-19T14:38:17;26.70;28.20
71367;DHT22;60030;52.274;8.040;2023-04-19T14:40:45;28.10;28.70
71367;DHT22;60030;52.274;8.040;2023-04-19T14:43:14;27.90;28.40
71367;DHT22;60030;52.274;8.040;2023-04-19T14:45:41;27.10;28.10
71367;DHT22;60030;52.274;8.040;2023-04-19T14:48:09;27.50;28.40
71367;DHT22;60030;52.274;8.040;2023-04-19T14:50:36;24.60;29.90
71367;DHT22;60030;52.274;8.040;2023-04-19T14:53:05;22.70;32.40
71367;DHT22;60030;52.274;8.040;2023-04-19T14:55:32;21.50;33.90
71367;DHT22;60030;52.274;8.040;2023-04-19T14:58:00;21.90;34.70
71367;DHT22;60030;52.274;8.040;2023-04-19T15:00:27;21.90;34.60
71367;DHT22;60030;52.274;8.040;2023-04-19T15:02:54;21.90;34.80
71367;DHT22;60030;52.274;8.040;2023-04-19T15:05:23;21.10;34.90
71367;DHT22;60030;52.274;8.040;2023-04-19T15:07:52;20.50;35.60
71367;DHT22;60030;52.274;8.040;2023-04-19T15:10:20;19.40;36.50
71367;DHT22;60030;52.274;8.040;2023-04-19T15:12:47;19.70;36.30
71367;DHT22;60030;52.274;8.040;2023-04-19T15:15:15;19.90;36.20
71367;DHT22;60030;52.274;8.040;2023-04-19T15:17:42;19.40;36.30
71367;DHT22;60030;52.274;8.040;2023-04-19T15:20:10;19.90;36.60
71367;DHT22;60030;52.274;8.040;2023-04-19T15:22:37;19.70;36.70
71367;DHT22;60030;52.274;8.040;2023-04-19T15:25:05;19.90;36.90
71367;DHT22;60030;52.274;8.040;2023-04-19T15:27:33;20.20;36.60
71367;DHT22;60030;52.274;8.040;2023-04-19T15:30:00;19.90;36.20
71367;DHT22;60030;52.274;8.040;2023-04-19T15:32:28;19.80;36.80
71367;DHT22;60030;52.274;8.040;2023-04-19T15:34:58;19.40;37.00
71367;DHT22;60030;52.274;8.040;2023-04-19T15:37:26;18.80;37.50
71367;DHT22;60030;52.274;8.040;2023-04-19T15:39:53;21.00;35.30
71367;DHT22;60030;52.274;8.040;2023-04-19T15:42:20;23.00;33.70
71367;DHT22;60030;52.274;8.040;2023-04-19T15:44:49;23.10;32.20
71367;DHT22;60030;52.274;8.040;2023-04-19T15:47:16;23.90;32.00
71367;DHT22;60030;52.274;8.040;2023-04-19T15:49:43;23.80;31.70